Time;durP1;ratioP1;P1;durP2;ratioP2;P2;SDS_P1;SDS_P2;PMS_P1;PMS_P2;Temp;Humidity;BMP_temperature;BMP_pressure;BME280_temperature;BME280_humidity;BME280_pressure;Samples;Min_cycle;Max_cycle;Signal;HPM_P1;HPM_P2
2021/09/21 00:02:07;;;;;;;7.85;4.40;;;;;;;13.10;100.00;102679.47;4946634;28;20059;-81
2021/09/21 00:04:32;;;;;;;8.57;4.53;;;;;;;13.03;100.00;102672.59;4948356;28;20511;-81
2021/09/21 00:06:59;;;;;;;6.82;4.10;;;;;;;12.97;100.00;102674.44;4951263;29;20442;-81
2021/09/21 00:09:30;;;;;;;6.13;4.13;;;;;;;12.84;100.00;102651.06;4954776;28;20057;-81
2021/09/21 00:11:56;;;;;;;8.30;5.18;;;;;;;12.89;100.00;102676.31;4955684;28;20091;-81
2021/09/21 00:14:25;;;;;;;7.07;4.85;;;;;;;12.85;100.00;102684.25;4949782;28;20051;-82
2021/09/21 00:17:02;;;;;;;8.60;4.68;;;;;;;12.71;100.00;102663.50;4945291;28;20079;-81
2021/09/21 00:19:32;;;;;;;7.32;4.50;;;;;;;12.76;100.00;102661.69;4947014;29;20051;-81
2021/09/21 00:22:01;;;;;;;8.15;4.70;;;;;;;12.96;100.00;102682.31;4947979;29;20412;-81
2021/09/21 00:24:28;;;;;;;8.85;4.60;;;;;;;12.96;100.00;102684.94;4954618;29;20055;-81
2021/09/21 00:26:58;;;;;;;7.50;4.55;;;;;;;12.90;100.00;102680.66;4947672;29;20055;-81
2021/09/21 00:29:25;;;;;;;8.13;4.93;;;;;;;12.75;100.00;102676.50;4954200;29;20055;-81
2021/09/21 00:32:00;;;;;;;6.47;4.45;;;;;;;12.69;100.00;102668.75;4958656;28;20055;-82
2021/09/21 00:34:37;;;;;;;6.75;4.53;;;;;;;12.56;100.00;102655.00;4959241;28;20117;-81
2021/09/21 00:37:14;;;;;;;6.22;4.00;;;;;;;12.82;100.00;102693.88;4947514;29;20107;-81
2021/09/21 00:39:42;;;;;;;9.68;4.75;;;;;;;12.81;100.00;102699.16;4977446;28;20531;-81
2021/09/21 00:42:09;;;;;;;8.20;4.25;;;;;;;12.80;100.00;102694.78;4978398;28;20061;-81
2021/09/21 00:44:38;;;;;;;6.10;3.97;;;;;;;12.77;100.00;102697.47;4927862;29;20043;-81
2021/09/21 00:47:07;;;;;;;9.05;4.68;;;;;;;12.73;100.00;102673.06;4958759;29;20408;-81
2021/09/21 00:49:35;;;;;;;8.23;4.65;;;;;;;12.80;100.00;102690.44;4959403;28;20059;-82
2021/09/21 00:52:05;;;;;;;8.40;4.00;;;;;;;12.81;100.00;102686.03;4944666;28;20473;-81
2021/09/21 00:54:32;;;;;;;8.25;3.80;;;;;;;12.78;100.00;102678.22;4950623;29;20047;-81
2021/09/21 00:57:01;;;;;;;7.88;4.20;;;;;;;12.67;100.00;102670.56;4942470;28;20415;-80
2021/09/21 00:59:29;;;;;;;9.23;4.72;;;;;;;12.67;100.00;102688.88;4944614;29;20051;-80
2021/09/21 01:01:57;;;;;;;7.93;4.55;;;;;;;12.65;100.00;102699.38;4968357;28;20051;-81
2021/09/21 01:04:23;;;;;;;8.60;4.50;;;;;;;12.62;100.00;102702.06;4960017;28;20047;-81
2021/09/21 01:06:49;;;;;;;8.07;4.43;;;;;;;12.40;100.00;102670.06;4992982;28;20062;-81
2021/09/21 01:09:20;;;;;;;7.93;4.40;;;;;;;12.57;100.00;102701.25;4968788;28;20051;-81
2021/09/21 01:11:54;;;;;;;10.50;4.70;;;;;;;12.60;100.00;102713.44;4958966;28;20058;-81
2021/09/21 01:14:28;;;;;;;7.60;4.95;;;;;;;12.57;100.00;102700.38;4948415;29;20055;-81
2021/09/21 01:16:55;;;;;;;8.75;4.25;;;;;;;12.49;100.00;102705.75;4955686;29;20471;-81
2021/09/21 01:19:23;;;;;;;7.63;4.90;;;;;;;12.43;100.00;102692.72;4958855;28;20055;-81
2021/09/21 01:21:51;;;;;;;8.57;4.78;;;;;;;12.43;100.00;102700.59;4957527;29;20091;-81
2021/09/21 01:24:19;;;;;;;7.38;4.35;;;;;;;12.41;100.00;102703.19;4969883;28;20055;-81
2021/09/21 01:26:45;;;;;;;8.02;5.00;;;;;;;12.37;100.00;102696.28;4942742;29;20084;-80
2021/09/21 01:29:12;;;;;;;6.75;4.15;;;;;;;12.47;100.00;102692.66;4962406;29;20047;-80
2021/09/21 01:31:40;;;;;;;7.50;4.53;;;;;;;12.52;100.00;102691.72;4982733;28;20441;-80
2021/09/21 01:34:08;;;;;;;9.05;5.22;;;;;;;12.40;100.00;102698.88;4951786;29;20385;-81
2021/09/21 01:36:40;;;;;;;7.85;4.88;;;;;;;12.19;100.00;102670.34;4957667;29;20459;-81
2021/09/21 01:39:09;;;;;;;8.75;4.60;;;;;;;12.17;100.00;102688.72;4941802;28;20059;-81
2021/09/21 01:41:36;;;;;;;7.80;4.45;;;;;;;12.14;100.00;102704.44;4948372;28;20126;-81
2021/09/21 01:44:04;;;;;;;8.93;4.57;;;;;;;12.15;100.00;102706.19;4952433;29;20066;-81
2021/09/21 01:46:33;;;;;;;7.63;4.53;;;;;;;12.00;100.00;102699.38;4960012;28;20071;-81
2021/09/21 01:49:01;;;;;;;9.05;4.55;;;;;;;11.98;100.00;102695.91;4946827;29;20123;-81
2021/09/21 01:59:28;;;;;;;9.00;4.88;;;;;;;11.92;100.00;102704.66;4951286;29;20485;-80
2021/09/21 02:01:55;;;;;;;6.85;4.30;;;;;;;11.90;100.00;102706.44;4942608;29;20047;-80
2021/09/21 02:04:21;;;;;;;10.32;4.65;;;;;;;11.62;100.00;102659.66;4955578;29;20055;-80
2021/09/21 02:06:48;;;;;;;9.10;4.65;;;;;;;11.90;100.00;102705.56;4951002;28;20074;-81
2021/09/21 02:09:15;;;;;;;8.23;4.63;;;;;;;11.87;100.00;102698.63;4952922;28;20106;-80
2021/09/21 02:11:45;;;;;;;8.43;4.70;;;;;;;11.77;100.00;102690.00;4957179;28;20195;-80
2021/09/21 02:14:14;;;;;;;8.70;4.70;;;;;;;11.85;100.00;102697.75;4940472;28;20044;-80
2021/09/21 02:16:41;;;;;;;8.25;4.50;;;;;;;11.83;100.00;102708.25;4945136;28;20496;-81
2021/09/21 02:19:07;;;;;;;8.23;4.60;;;;;;;11.60;100.00;102664.03;4956311;28;20154;-80
2021/09/21 02:21:34;;;;;;;10.80;5.15;;;;;;;11.83;100.00;102713.50;4957132;28;20058;-80
2021/09/21 02:24:00;;;;;;;7.80;4.85;;;;;;;11.80;100.00;102707.41;4949400;28;20087;-80
2021/09/21 02:26:28;;;;;;;7.88;4.82;;;;;;;11.79;100.00;102705.69;4937849;28;20051;-80
2021/09/21 02:28:55;;;;;;;6.70;4.32;;;;;;;11.64;100.00;102676.19;4937567;29;20060;-80
2021/09/21 02:31:21;;;;;;;6.28;4.43;;;;;;;11.73;100.00;102690.94;4951443;29;20106;-80
2021/09/21 02:33:48;;;;;;;8.13;4.43;;;;;;;11.82;100.00;102697.81;4939389;29;20489;-80
2021/09/21 02:36:15;;;;;;;6.05;4.10;;;;;;;11.79;100.00;102703.06;4956277;28;20469;-80
2021/09/21 02:38:41;;;;;;;9.52;4.53;;;;;;;11.76;100.00;102703.13;4949432;28;20127;-80
2021/09/21 02:41:08;;;;;;;8.07;4.45;;;;;;;11.73;100.00;102703.13;4939923;29;20059;-80
2021/09/21 02:43:35;;;;;;;7.25;4.72;;;;;;;11.59;100.00;102682.38;4953399;28;20062;-80
2021/09/21 02:46:01;;;;;;;8.05;4.50;;;;;;;11.66;100.00;102700.59;4956256;28;20063;-79
2021/09/21 02:48:30;;;;;;;9.05;4.60;;;;;;;11.63;100.00;102705.88;4957308;28;20047;-80
2021/09/21 02:50:56;;;;;;;7.57;4.35;;;;;;;11.45;100.00;102682.50;4953199;29;20055;-80
2021/09/21 02:53:22;;;;;;;5.80;3.97;;;;;;;11.58;100.00;102705.03;4974075;28;20043;-78
2021/09/21 02:55:48;;;;;;;9.20;4.05;;;;;;;11.37;100.00;102680.81;4957604;29;20061;-78
2021/09/21 02:58:14;;;;;;;6.72;4.25;;;;;;;11.46;100.00;102699.91;4960291;29;20079;-80
2021/09/21 03:00:41;;;;;;;9.82;4.55;;;;;;;11.10;100.00;102661.03;4962833;29;20064;-79
2021/09/21 03:03:08;;;;;;;6.25;4.25;;;;;;;11.40;100.00;102707.81;4972770;28;20047;-79
2021/09/21 03:05:40;;;;;;;8.05;4.32;;;;;;;11.40;100.00;102716.56;4966349;28;20082;-79
2021/09/21 03:08:14;;;;;;;8.52;4.35;;;;;;;11.42;100.00;102709.53;4980195;28;20063;-81
2021/09/21 03:18:53;;;;;;;8.07;4.57;;;;;;;11.15;100.00;102713.28;4936244;29;20104;-80
2021/09/21 03:21:20;;;;;;;8.25;4.40;;;;;;;11.19;100.00;102713.25;4953310;29;20074;-80
2021/09/21 03:23:48;;;;;;;6.00;4.15;;;;;;;11.15;100.00;102708.06;4955416;28;20055;-80
2021/09/21 03:26:14;;;;;;;7.57;4.57;;;;;;;11.18;100.00;102714.13;4955842;29;20055;-80
2021/09/21 03:28:40;;;;;;;6.35;4.20;;;;;;;11.31;100.00;102729.69;4954757;28;20109;-80
2021/09/21 03:31:06;;;;;;;7.20;4.15;;;;;;;11.23;100.00;102718.44;4954544;28;20437;-80
2021/09/21 03:33:33;;;;;;;7.93;4.60;;;;;;;11.23;100.00;102721.94;4951350;29;20047;-80
2021/09/21 03:35:59;;;;;;;7.35;4.55;;;;;;;11.24;100.00;102728.88;4951188;28;20404;-80
2021/09/21 03:38:31;;;;;;;7.93;4.35;;;;;;;11.24;100.00;102733.25;4946619;28;20126;-80
2021/09/21 03:40:59;;;;;;;10.23;4.57;;;;;;;11.23;100.00;102737.63;4947305;28;20461;-80
2021/09/21 03:43:25;;;;;;;8.85;4.88;;;;;;;11.06;100.00;102703.78;4955049;29;20492;-80
2021/09/21 03:45:52;;;;;;;8.32;4.43;;;;;;;11.19;100.00;102730.66;4955022;28;20559;-79
2021/09/21 03:48:18;;;;;;;8.10;4.60;;;;;;;11.09;100.00;102729.88;4951577;28;20059;-80
2021/09/21 03:50:46;;;;;;;9.35;4.70;;;;;;;11.00;100.00;102714.28;4955415;28;20058;-81
2021/09/21 03:53:13;;;;;;;6.57;4.43;;;;;;;11.14;100.00;102737.69;4951662;28;20051;-80
2021/09/21 03:55:40;;;;;;;6.82;4.10;;;;;;;11.15;100.00;102742.03;4940511;29;20055;-80
2021/09/21 03:58:11;;;;;;;8.07;4.55;;;;;;;11.07;100.00;102729.03;4940800;29;20070;-80
2021/09/21 04:00:37;;;;;;;9.10;4.65;;;;;;;11.08;100.00;102732.50;4953822;29;20051;-80
2021/09/21 04:03:03;;;;;;;10.95;9.85;;;;;;;11.03;100.00;102740.38;4954541;29;20515;-80
2021/09/21 04:05:30;;;;;;;19.20;15.23;;;;;;;10.91;100.00;102715.19;4935745;28;20048;-79
2021/09/21 04:07:56;;;;;;;25.02;20.70;;;;;;;10.91;100.00;102724.78;4946070;28;20055;-81
2021/09/21 04:10:24;;;;;;;28.67;25.65;;;;;;;10.88;100.00;102729.13;4947225;29;20055;-80
2021/09/21 04:12:50;;;;;;;35.47;32.00;;;;;;;10.86;100.00;102743.09;4948763;29;20109;-80
2021/09/21 04:15:16;;;;;;;34.25;30.60;;;;;;;10.84;100.00;102748.34;4943992;28;20052;-80
2021/09/21 04:17:44;;;;;;;30.63;27.42;;;;;;;10.83;100.00;102741.38;4953527;28;20055;-80
2021/09/21 04:20:11;;;;;;;33.78;30.38;;;;;;;10.79;100.00;102744.00;4938172;29;20217;-80
2021/09/21 04:22:39;;;;;;;33.58;29.88;;;;;;;10.81;100.00;102757.94;4949788;29;20076;-79
2021/09/21 04:25:05;;;;;;;33.03;29.92;;;;;;;10.62;100.00;102731.94;4971180;29;20051;-79
2021/09/21 04:27:32;;;;;;;33.88;30.33;;;;;;;10.66;100.00;102746.69;4945953;28;20055;-79
2021/09/21 04:30:00;;;;;;;44.20;39.60;;;;;;;10.78;100.00;102758.81;4939328;29;20489;-79
2021/09/21 04:32:26;;;;;;;39.38;35.42;;;;;;;10.82;100.00;102750.09;4934806;29;20126;-79
2021/09/21 04:34:52;;;;;;;42.58;38.22;;;;;;;10.79;100.00;102757.06;4947878;29;20508;-79
2021/09/21 04:37:18;;;;;;;44.00;39.65;;;;;;;10.81;100.00;102761.41;4955071;28;20125;-78
2021/09/21 04:39:47;;;;;;;43.75;39.40;;;;;;;10.63;100.00;102743.22;4942601;28;20063;-78
2021/09/21 04:42:14;;;;;;;41.50;37.10;;;;;;;10.66;100.00;102745.84;4937840;29;20056;-79
2021/09/21 04:44:43;;;;;;;39.72;35.60;;;;;;;10.70;100.00;102758.84;4949331;29;20051;-79
2021/09/21 04:47:10;;;;;;;42.40;37.88;;;;;;;10.73;100.00;102758.84;4946910;28;20110;-79
2021/09/21 04:49:37;;;;;;;39.25;35.30;;;;;;;10.78;100.00;102763.16;4948171;28;20508;-79
2021/09/21 04:52:04;;;;;;;37.80;33.70;;;;;;;10.81;100.00;102773.63;4940134;29;20138;-79
2021/09/21 04:54:29;;;;;;;31.13;27.83;;;;;;;10.78;100.00;102760.56;4957525;28;20059;-79
2021/09/21 04:56:56;;;;;;;27.02;24.20;;;;;;;10.85;100.00;102765.75;4961164;28;20404;-79
2021/09/21 04:59:22;;;;;;;18.48;15.85;;;;;;;10.67;100.00;102735.38;4949051;28;20146;-79
2021/09/21 05:01:48;;;;;;;17.17;14.23;;;;;;;10.75;100.00;102769.28;4954227;29;20052;-79
2021/09/21 05:04:14;;;;;;;15.48;13.73;;;;;;;10.71;100.00;102768.44;4957700;29;20051;-80
2021/09/21 05:06:40;;;;;;;14.65;13.15;;;;;;;10.69;100.00;102771.94;4956994;28;20086;-80
2021/09/21 05:09:13;;;;;;;13.68;12.20;;;;;;;10.64;100.00;102764.09;4955690;28;20090;-79
2021/09/21 05:11:39;;;;;;;13.13;11.45;;;;;;;10.61;100.00;102776.31;4955142;28;20059;-79
2021/09/21 05:14:05;;;;;;;14.60;11.70;;;;;;;10.53;100.00;102779.84;4954360;28;20073;-79
2021/09/21 05:16:32;;;;;;;14.57;10.23;;;;;;;10.48;100.00;102780.75;4946292;28;20062;-79
2021/09/21 05:18:59;;;;;;;11.45;10.20;;;;;;;10.30;100.00;102750.31;4942094;29;20056;-79
2021/09/21 05:21:26;;;;;;;12.80;11.18;;;;;;;10.39;100.00;102781.66;4939642;29;20460;-79
2021/09/21 05:23:54;;;;;;;14.18;9.93;;;;;;;10.27;100.00;102764.25;4950233;29;20126;-79
2021/09/21 05:26:21;;;;;;;13.90;10.18;;;;;;;10.16;100.00;102747.78;4956327;29;20058;-80
2021/09/21 05:28:47;;;;;;;13.25;10.65;;;;;;;10.26;100.00;102772.94;4950712;29;20077;-80
2021/09/21 05:31:20;;;;;;;12.35;9.95;;;;;;;10.36;100.00;102787.75;4954893;29;20051;-80
2021/09/21 05:33:49;;;;;;;13.75;10.40;;;;;;;10.41;100.00;102774.66;4951127;28;20485;-79
2021/09/21 05:36:16;;;;;;;11.27;10.07;;;;;;;10.39;100.00;102781.66;4938719;29;20052;-80
2021/09/21 05:38:42;;;;;;;16.02;11.70;;;;;;;10.40;100.00;102784.25;4957371;28;20420;-80
2021/09/21 05:41:11;;;;;;;20.80;16.10;;;;;;;10.38;100.00;102786.00;4938588;29;20047;-80
2021/09/21 05:43:40;;;;;;;21.77;16.95;;;;;;;10.38;100.00;102787.75;4939947;29;20052;-79
2021/09/21 05:46:06;;;;;;;22.67;19.92;;;;;;;10.23;100.00;102750.34;4957218;29;20047;-79
2021/09/21 05:48:32;;;;;;;27.67;22.65;;;;;;;10.44;100.00;102782.50;4945898;28;20127;-80
2021/09/21 05:50:58;;;;;;;32.75;26.58;;;;;;;10.34;100.00;102783.34;4955858;29;20062;-81
2021/09/21 05:53:24;;;;;;;35.53;31.83;;;;;;;10.34;100.00;102804.25;4946863;29;20056;-81
2021/09/21 05:55:52;;;;;;;30.10;26.95;;;;;;;10.09;100.00;102766.06;4939080;29;20056;-82
2021/09/21 05:58:18;;;;;;;27.27;24.38;;;;;;;10.24;100.00;102798.19;4946735;29;20064;-81
2021/09/21 06:00:44;;;;;;;25.65;22.05;;;;;;;10.18;100.00;102803.41;4952524;29;20126;-81
2021/09/21 06:03:20;;;;;;;21.88;17.33;;;;;;;10.13;100.00;102815.63;4945077;29;20052;-81
2021/09/21 06:05:48;;;;;;;18.15;16.00;;;;;;;9.95;100.00;102780.88;4939775;29;20507;-81
2021/09/21 06:08:14;;;;;;;16.95;14.85;;;;;;;10.05;100.00;102803.44;4948846;28;20044;-81
2021/09/21 06:10:42;;;;;;;15.77;14.18;;;;;;;10.20;100.00;102815.59;4941608;29;20488;-81
2021/09/21 06:13:09;;;;;;;20.00;15.00;;;;;;;10.25;100.00;102813.88;4940321;29;20056;-81
2021/09/21 06:15:35;;;;;;;23.88;14.70;;;;;;;10.22;100.00;102797.34;4939687;29;20051;-81
2021/09/21 06:18:03;;;;;;;16.88;15.13;;;;;;;10.44;100.00;102823.41;4949321;28;20062;-81
2021/09/21 06:20:30;;;;;;;19.45;14.57;;;;;;;10.46;100.00;102806.88;4954435;29;20059;-80
2021/09/21 06:22:56;;;;;;;17.40;15.32;;;;;;;10.43;100.00;102803.41;4946547;28;20062;-81
2021/09/21 06:25:25;;;;;;;15.18;13.65;;;;;;;10.57;100.00;102818.13;4954401;28;20059;-81
2021/09/21 06:27:57;;;;;;;16.92;12.50;;;;;;;10.71;100.00;102822.44;4942901;28;20058;-81
2021/09/21 06:30:24;;;;;;;15.88;13.82;;;;;;;10.52;100.00;102780.72;4953460;29;20066;-81
2021/09/21 06:32:52;;;;;;;14.20;11.63;;;;;;;10.85;100.00;102822.34;4954434;28;20130;-81
2021/09/21 06:35:20;;;;;;;16.42;12.30;;;;;;;10.81;100.00;102802.34;4944900;28;20087;-81
2021/09/21 06:37:49;;;;;;;18.38;12.15;;;;;;;10.77;100.00;102791.03;4956180;28;20054;-81
2021/09/21 06:40:18;;;;;;;17.67;14.68;;;;;;;10.95;100.00;102826.66;4950246;28;20055;-81
2021/09/21 06:42:46;;;;;;;15.50;12.55;;;;;;;10.97;100.00;102829.25;4949908;28;20058;-82
2021/09/21 06:45:16;;;;;;;17.17;12.52;;;;;;;11.06;100.00;102829.22;4957167;29;20114;-81
2021/09/21 06:47:44;;;;;;;14.05;12.55;;;;;;;11.08;100.00;102821.38;4955717;29;20121;-80
2021/09/21 06:50:13;;;;;;;13.70;12.15;;;;;;;11.14;100.00;102823.94;4956777;28;20134;-81
2021/09/21 06:52:40;;;;;;;20.70;13.25;;;;;;;11.24;100.00;102819.50;4961131;28;20047;-80
2021/09/21 06:55:07;;;;;;;17.30;13.45;;;;;;;11.37;100.00;102822.00;4951555;29;20078;-81
2021/09/21 06:57:34;;;;;;;17.02;13.85;;;;;;;11.41;100.00;102825.47;4956784;28;20047;-80
2021/09/21 07:00:01;;;;;;;16.50;14.43;;;;;;;11.31;100.00;102803.75;4952938;29;20055;-81
2021/09/21 07:02:28;;;;;;;18.20;14.15;;;;;;;11.29;100.00;102802.94;4946842;28;20063;-80
2021/09/21 07:04:55;;;;;;;15.48;13.13;;;;;;;11.47;100.00;102807.13;4948594;29;20048;-80
2021/09/21 07:07:29;;;;;;;15.10;13.38;;;;;;;11.64;100.00;102841.00;4953437;28;20054;-80
2021/09/21 07:09:57;;;;;;;14.52;13.02;;;;;;;11.67;100.00;102829.66;4949280;29;20051;-81
2021/09/21 07:12:26;;;;;;;16.23;13.70;;;;;;;11.69;100.00;102834.00;4958250;28;20051;-80
2021/09/21 07:14:52;;;;;;;18.88;15.30;;;;;;;11.75;100.00;102832.19;4947290;28;20476;-80
2021/09/21 07:17:18;;;;;;;21.17;16.58;;;;;;;11.79;100.00;102837.41;4945385;29;20055;-80
2021/09/21 07:19:45;;;;;;;16.52;13.93;;;;;;;11.78;100.00;102840.88;4964507;28;20043;-81
2021/09/21 07:22:13;;;;;;;15.05;12.48;;;;;;;11.87;100.00;102845.16;4947256;29;22130;-80
2021/09/21 07:24:40;;;;;;;14.75;11.30;;;;;;;11.96;100.00;102842.50;4936729;28;20051;-80
2021/09/21 07:27:06;;;;;;;19.65;13.75;;;;;;;11.97;100.00;102830.28;4943926;28;20135;-80
2021/09/21 07:29:34;;;;;;;20.10;14.57;;;;;;;11.76;100.00;102834.78;4945320;29;20055;-79
2021/09/21 07:32:00;;;;;;;20.45;15.30;;;;;;;11.88;100.00;102856.50;4954691;29;20055;-79
2021/09/21 07:34:26;;;;;;;25.85;16.95;;;;;;;11.98;100.00;102845.97;4956443;28;20055;-79
2021/09/21 07:36:55;;;;;;;27.48;21.42;;;;;;;11.97;100.00;102827.66;4959381;28;20052;-77
2021/09/21 07:39:21;;;;;;;20.75;16.17;;;;;;;12.07;100.00;102821.47;4957548;28;20059;-80
2021/09/21 07:41:47;;;;;;;22.25;17.10;;;;;;;12.12;100.00;102818.78;4959769;28;20119;-80
2021/09/21 07:44:13;;;;;;;21.60;17.83;;;;;;;12.06;100.00;102824.06;4986307;28;20055;-80
2021/09/21 07:46:39;;;;;;;18.08;15.70;;;;;;;12.21;100.00;102833.53;4970640;28;20058;-79
2021/09/21 07:49:05;;;;;;;16.67;14.68;;;;;;;12.26;100.00;102826.50;4978705;28;20046;-81
2021/09/21 07:51:32;;;;;;;20.52;15.52;;;;;;;12.37;100.00;102845.56;4977770;28;20061;-78
2021/09/21 07:53:59;;;;;;;17.70;15.82;;;;;;;12.29;100.00;102816.88;4961113;28;20103;-80
2021/09/21 07:56:25;;;;;;;17.17;13.07;;;;;;;12.73;100.00;102869.63;4977452;29;20059;-80
2021/09/21 07:58:52;;;;;;;17.15;14.02;;;;;;;12.91;100.00;102878.13;4968018;28;20480;-81
2021/09/21 08:01:18;;;;;;;14.70;12.93;;;;;;;13.00;100.00;102875.38;4942568;29;20158;-77
2021/09/21 08:03:46;;;;;;;17.98;12.73;;;;;;;13.31;100.00;102881.97;4955841;28;20118;-79
2021/09/21 08:06:12;;;;;;;15.35;12.57;;;;;;;13.37;100.00;102877.47;4963474;28;20485;-79
2021/09/21 08:08:40;;;;;;;16.48;12.70;;;;;;;13.58;100.00;102885.94;4964314;28;20051;-76
2021/09/21 08:11:10;;;;;;;22.65;12.82;;;;;;;13.45;100.00;102841.53;4950214;28;20062;-78
2021/09/21 08:13:36;;;;;;;27.48;10.25;;;;;;;13.64;100.00;102885.00;4941479;28;20074;-78
2021/09/21 08:16:03;;;;;;;16.90;11.02;;;;;;;13.89;100.00;102878.44;4942115;29;20054;-82
2021/09/21 08:19:37;;;;;;;15.75;11.18;;;;;;;14.04;100.00;102882.53;5070812;27;1411317;-77
2021/09/21 08:22:03;;;;;;;14.02;11.05;;;;;;;14.18;100.00;102886.69;5093256;28;20059;-77
2021/09/21 08:24:29;;;;;;;17.23;11.50;;;;;;;14.17;100.00;102887.56;5095472;28;20555;-76
2021/09/21 08:26:58;;;;;;;13.32;10.23;;;;;;;14.29;100.00;102882.09;5099884;28;20625;-76
2021/09/21 08:29:26;;;;;;;18.67;10.45;;;;;;;14.38;100.00;102883.69;5083505;28;20080;-77
2021/09/21 08:31:54;;;;;;;16.55;10.70;;;;;;;14.47;100.00;102882.66;5103049;28;20508;-77
2021/09/21 08:34:21;;;;;;;16.92;11.30;;;;;;;14.68;100.00;102884.00;5105337;28;20056;-79
2021/09/21 08:36:50;;;;;;;20.33;11.25;;;;;;;14.80;100.00;102882.91;5085186;28;20676;-80
2021/09/21 08:39:18;;;;;;;14.90;9.88;;;;;;;14.81;100.00;102874.13;5102517;28;20591;-79
2021/09/21 08:41:46;;;;;;;13.00;9.20;;;;;;;15.03;100.00;102883.25;5103596;28;20059;-78
2021/09/21 08:44:12;;;;;;;16.95;9.07;;;;;;;15.28;100.00;102879.22;5103806;28;20073;-79
2021/09/21 08:46:39;;;;;;;14.50;9.00;;;;;;;15.51;100.00;102879.56;5109779;28;20066;-79
2021/09/21 08:49:07;;;;;;;12.60;8.52;;;;;;;15.53;100.00;102895.28;5087100;28;20043;-78
2021/09/21 08:51:33;;;;;;;12.70;8.07;;;;;;;15.40;100.00;102892.06;5108338;28;20047;-82
2021/09/21 08:53:59;;;;;;;11.75;8.02;;;;;;;15.28;100.00;102887.09;5109847;28;20974;-81
2021/09/21 08:56:28;;;;;;;12.98;6.63;;;;;;;15.30;100.00;102888.78;5097365;28;20056;-81
2021/09/21 08:59:04;;;;;;;10.10;7.65;;;;;;;15.47;100.00;102883.13;5106555;28;20499;-82
2021/09/21 09:01:50;;;;;;;9.98;7.35;;;;;;;15.60;100.00;102891.63;5108500;28;20415;-84
2021/09/21 09:04:19;;;;;;;10.85;5.97;;;;;;;15.68;100.00;102868.59;5106488;28;20047;-82
2021/09/21 09:06:53;;;;;;;10.95;6.50;;;;;;;16.03;100.00;102868.63;5106224;28;20055;-85
2021/09/21 09:09:24;;;;;;;10.27;6.57;;;;;;;16.25;100.00;102897.03;5082020;28;20570;-84
2021/09/21 09:11:53;;;;;;;11.05;6.22;;;;;;;16.43;100.00;102893.00;5090521;28;20055;-82
2021/09/21 09:14:22;;;;;;;13.88;6.20;;;;;;;16.49;100.00;102884.97;5096027;28;20052;-82
2021/09/21 09:17:11;;;;;;;10.35;7.18;;;;;;;16.63;100.00;102900.38;5110358;28;20048;-81
2021/09/21 09:19:42;;;;;;;10.57;6.25;;;;;;;16.20;100.00;102878.72;5106689;28;20075;-80
2021/09/21 09:22:17;;;;;;;11.73;6.55;;;;;;;16.42;100.00;102892.16;5110257;28;20109;-80
2021/09/21 09:24:50;;;;;;;8.10;5.88;;;;;;;16.69;100.00;102905.47;5107640;28;20048;-86
2021/09/21 09:27:18;;;;;;;12.95;7.05;;;;;;;16.61;100.00;102899.53;5104314;28;20044;-79
2021/09/21 09:30:01;;;;;;;11.23;6.15;;;;;;;16.70;100.00;102903.69;5083302;28;20049;-81
2021/09/21 09:32:27;;;;;;;12.13;5.93;;;;;;;16.83;100.00;102904.22;5076479;28;20059;-83
2021/09/21 09:34:59;;;;;;;10.23;6.00;;;;;;;17.06;100.00;102895.63;5082652;28;20051;-82
2021/09/21 09:37:41;;;;;;;8.10;5.45;;;;;;;17.19;100.00;102901.41;5062440;28;20091;-79
2021/09/21 09:40:12;;;;;;;7.43;5.70;;;;;;;17.38;100.00;102896.41;5089784;28;20063;-80
2021/09/21 09:42:44;;;;;;;11.55;6.20;;;;;;;17.67;100.00;102892.81;5094095;28;20044;-81
2021/09/21 09:45:13;;;;;;;9.90;5.80;;;;;;;17.81;100.00;102896.78;5095084;28;20052;-81
2021/09/21 09:47:48;;;;;;;9.35;5.28;;;;;;;17.75;100.00;102898.72;5077436;28;20048;-80
2021/09/21 09:50:18;;;;;;;10.70;6.18;;;;;;;17.72;100.00;102890.91;5093298;28;20119;-80
2021/09/21 09:52:48;;;;;;;8.35;5.30;;;;;;;17.65;100.00;102893.78;5102745;28;20573;-82
2021/09/21 09:55:14;;;;;;;9.15;5.38;;;;;;;17.64;100.00;102903.50;5080909;28;20046;-80
2021/09/21 09:57:41;;;;;;;7.22;4.70;;;;;;;17.64;100.00;102860.34;5092971;28;20400;-80
2021/09/21 10:00:10;;;;;;;10.75;6.18;;;;;;;18.12;100.00;102896.63;5093997;28;20044;-83
2021/09/21 10:02:40;;;;;;;9.30;5.47;;;;;;;18.12;100.00;102901.91;5097088;28;20557;-81
2021/09/21 10:05:06;;;;;;;9.68;4.97;;;;;;;18.44;100.00;102899.88;5095978;28;20079;-82
2021/09/21 10:07:35;;;;;;;8.45;4.53;;;;;;;18.49;100.00;102911.19;5089684;28;20052;-86
2021/09/21 10:10:01;;;;;;;9.98;5.28;;;;;;;18.58;100.00;102906.47;5093516;28;20404;-81
2021/09/21 10:12:28;;;;;;;9.30;5.35;;;;;;;18.53;100.00;102911.94;5083117;28;20047;-81
2021/09/21 10:14:55;;;;;;;11.80;5.30;;;;;;;18.79;100.00;102896.88;5115716;28;20059;-79
2021/09/21 10:17:26;;;;;;;9.73;5.63;;;;;;;18.72;100.00;102894.47;5116807;28;20046;-77
2021/09/21 10:19:55;;;;;;;11.00;5.10;;;;;;;18.91;100.00;102891.16;5098743;28;20052;-78
2021/09/21 10:22:30;;;;;;;9.77;5.18;;;;;;;18.92;100.00;102882.28;5102776;28;20416;-78
2021/09/21 10:25:23;;;;;;;7.70;5.13;;;;;;;19.12;100.00;102891.22;5093554;28;20498;-80
2021/09/21 10:27:51;;;;;;;6.65;4.32;;;;;;;19.40;100.00;102893.63;5076612;28;20066;-80
2021/09/21 10:30:23;;;;;;;6.78;4.32;;;;;;;19.16;100.00;102877.81;5095315;28;20056;-82
2021/09/21 10:32:51;;;;;;;6.97;5.20;;;;;;;19.37;100.00;102891.09;5095780;28;20543;-79
2021/09/21 10:35:21;;;;;;;7.75;4.50;;;;;;;19.28;100.00;102881.75;5077819;28;20056;-79
2021/09/21 10:38:11;;;;;;;7.75;4.00;;;;;;;19.56;100.00;102885.91;5064666;28;20131;-83
2021/09/21 10:40:45;;;;;;;5.93;3.88;;;;;;;19.36;100.00;102865.56;5086995;28;20502;-82
2021/09/21 10:43:26;;;;;;;5.97;4.07;;;;;;;19.50;100.00;102875.56;5075358;28;20055;-81
2021/09/21 10:46:05;;;;;;;9.68;4.40;;;;;;;19.63;100.00;102863.53;5093934;28;20050;-80
2021/09/21 10:48:36;;;;;;;8.00;4.32;;;;;;;19.72;100.00;102859.63;5044890;28;20048;-80
2021/09/21 10:51:04;;;;;;;7.00;3.60;;;;;;;20.26;100.00;102864.41;5091966;28;20557;-79
2021/09/21 10:53:30;;;;;;;5.25;3.28;;;;;;;20.57;100.00;102863.88;5090777;28;20056;-80
2021/09/21 10:56:07;;;;;;;5.93;2.63;;;;;;;20.74;100.00;102868.44;5091935;28;20048;-81
2021/09/21 10:58:35;;;;;;;5.80;2.78;;;;;;;20.76;100.00;102866.59;5102912;28;20044;-82
2021/09/21 11:01:02;;;;;;;6.88;2.80;;;;;;;20.86;100.00;102852.84;5088243;28;20059;-80
2021/09/21 11:03:33;;;;;;;5.93;3.00;;;;;;;20.78;100.00;102863.84;5089098;28;20171;-80
2021/09/21 11:06:00;;;;;;;6.68;2.90;;;;;;;20.83;100.00;102837.09;5094989;28;20052;-81
2021/09/21 11:08:36;;;;;;;6.43;2.80;;;;;;;21.05;100.00;102860.81;5094372;28;20062;-80
2021/09/21 11:11:07;;;;;;;5.68;2.65;;;;;;;21.09;100.00;102841.13;5042556;28;20399;-80
2021/09/21 11:13:43;;;;;;;5.47;2.92;;;;;;;21.17;100.00;102817.72;5094790;28;20048;-81
2021/09/21 11:16:14;;;;;;;6.40;2.50;;;;;;;21.68;100.00;102859.50;5091383;28;20567;-81
2021/09/21 11:18:44;;;;;;;4.45;2.33;;;;;;;21.62;100.00;102854.50;5074538;28;20106;-81
2021/09/21 11:21:11;;;;;;;6.25;2.38;;;;;;;21.71;100.00;102856.69;5092979;28;20063;-81
2021/09/21 11:23:42;;;;;;;7.28;2.63;;;;;;;21.56;100.00;102845.91;5096268;28;20048;-81
2021/09/21 11:26:11;;;;;;;8.20;2.67;;;;;;;21.43;100.00;102856.28;5096036;28;20126;-82
2021/09/21 11:28:43;;;;;;;6.03;3.00;;;;;;;21.00;100.00;102852.22;5075346;28;20055;-81
2021/09/21 11:31:09;;;;;;;4.65;2.67;;;;;;;21.24;100.00;102855.47;5091360;28;20509;-83
2021/09/21 11:33:38;;;;;;;5.70;2.88;;;;;;;21.42;100.00;102848.38;5071273;28;20043;-82